Time;durP1;ratioP1;P1;durP2;ratioP2;P2;SDS_P1;SDS_P2;PMS_P1;PMS_P2;Temp;Humidity;BMP_temperature;BMP_pressure;BME280_temperature;BME280_humidity;BME280_pressure;Samples;Min_cycle;Max_cycle;Signal;HPM_P1;HPM_P2
2023/10/13 00:08:39;;;;;;;28.27;16.85;;;21.60;78.30;;;;;;6228089;23;20150;-78
2023/10/13 00:11:06;;;;;;;23.77;16.95;;;21.50;78.40;;;;;;6222467;23;20028;-78
2023/10/13 00:16:30;;;;;;;28.65;17.45;;;21.40;78.10;;;;;;6195087;23;20425;-80
2023/10/13 00:18:59;;;;;;;26.30;16.80;;;21.30;77.80;;;;;;6241915;23;20082;-78
2023/10/13 00:21:31;;;;;;;29.52;17.77;;;21.30;78.70;;;;;;6245802;23;20016;-78
2023/10/13 00:24:05;;;;;;;28.00;17.38;;;21.20;78.70;;;;;;6246022;23;20000;-78
2023/10/13 00:26:35;;;;;;;26.80;16.80;;;21.10;78.10;;;;;;6245792;23;20000;-80
2023/10/13 00:29:10;;;;;;;25.20;16.65;;;21.10;78.60;;;;;;6245879;23;20067;-80
2023/10/13 00:31:40;;;;;;;29.75;17.90;;;21.10;78.30;;;;;;6220752;23;20333;-79
2023/10/13 00:34:27;;;;;;;24.90;16.27;;;21.10;78.20;;;;;;6245427;23;20043;-79
2023/10/13 00:39:37;;;;;;;30.73;17.02;;;21.10;78.90;;;;;;6245728;23;20545;-79
2023/10/13 00:42:07;;;;;;;25.95;16.05;;;21.00;78.10;;;;;;6245956;23;20000;-79
2023/10/13 00:44:43;;;;;;;27.88;16.42;;;21.00;78.60;;;;;;6245851;23;20015;-80
2023/10/13 00:47:10;;;;;;;26.05;16.13;;;21.00;77.90;;;;;;6245186;23;20007;-77
2023/10/13 00:49:39;;;;;;;30.05;16.40;;;21.00;77.40;;;;;;6245384;23;20074;-79
2023/10/13 00:52:10;;;;;;;25.27;15.82;;;20.90;77.50;;;;;;6245240;23;20083;-78
2023/10/13 00:54:37;;;;;;;29.05;17.20;;;20.90;77.40;;;;;;6245607;23;20035;-80
2023/10/13 00:57:07;;;;;;;21.92;16.05;;;20.80;77.40;;;;;;6245669;23;20334;-79
2023/10/13 00:59:34;;;;;;;24.88;16.58;;;20.80;77.70;;;;;;6245665;23;20462;-79
2023/10/13 01:02:26;;;;;;;22.95;14.82;;;20.80;77.70;;;;;;6245372;23;20063;-78
2023/10/13 01:04:46;;;;;;;26.88;16.75;;;20.70;77.70;;;;;;6245153;23;20033;-78
2023/10/13 01:07:12;;;;;;;24.23;16.35;;;20.80;77.60;;;;;;6219138;23;20012;-79
2023/10/13 01:09:42;;;;;;;23.17;15.20;;;20.70;77.30;;;;;;6253904;22;20086;-79
2023/10/13 01:12:08;;;;;;;21.65;14.85;;;20.70;77.10;;;;;;6275942;22;20496;-78
2023/10/13 01:14:35;;;;;;;27.65;15.27;;;20.70;77.30;;;;;;6275630;22;20094;-78
2023/10/13 01:17:01;;;;;;;30.15;15.57;;;20.70;77.40;;;;;;6276116;22;20058;-79
2023/10/13 01:19:28;;;;;;;22.95;14.80;;;20.60;77.10;;;;;;6276016;22;20563;-80
2023/10/13 01:22:02;;;;;;;24.30;14.85;;;20.60;77.20;;;;;;6276267;22;20008;-78
2023/10/13 01:24:31;;;;;;;20.25;14.48;;;20.60;77.80;;;;;;6275549;22;20035;-78
2023/10/13 01:27:00;;;;;;;21.63;14.35;;;20.60;77.10;;;;;;6275554;22;19999;-80
2023/10/13 01:29:29;;;;;;;20.70;13.63;;;20.60;76.90;;;;;;6275660;22;20039;-78
2023/10/13 01:31:54;;;;;;;28.67;14.35;;;20.60;76.90;;;;;;6275647;22;20026;-78
2023/10/13 01:34:23;;;;;;;24.20;13.82;;;20.50;76.80;;;;;;6275718;22;20008;-77
2023/10/13 01:36:53;;;;;;;19.95;14.13;;;20.50;77.00;;;;;;6248559;22;20003;-77
2023/10/13 01:39:26;;;;;;;20.27;13.85;;;20.50;77.40;;;;;;6275557;22;20082;-77
2023/10/13 01:41:55;;;;;;;23.60;13.40;;;20.50;76.60;;;;;;6275641;22;20128;-80
2023/10/13 01:44:30;;;;;;;21.23;13.77;;;20.50;76.80;;;;;;6249692;22;20030;-79
2023/10/13 01:46:59;;;;;;;19.50;14.05;;;20.50;76.30;;;;;;6276124;22;20011;-78
2023/10/13 01:49:27;;;;;;;23.42;12.60;;;20.50;76.00;;;;;;6275857;22;19999;-79
2023/10/13 01:51:53;;;;;;;21.98;12.80;;;20.50;76.10;;;;;;6275873;22;20057;-79
2023/10/13 01:54:21;;;;;;;16.65;11.52;;;20.50;76.10;;;;;;6275686;22;20071;-79
2023/10/13 01:56:48;;;;;;;16.85;12.50;;;20.50;76.10;;;;;;6275397;22;20003;-80
2023/10/13 01:59:15;;;;;;;20.98;12.10;;;20.50;76.10;;;;;;6276409;22;20062;-78
2023/10/13 02:01:41;;;;;;;18.65;11.40;;;20.50;75.80;;;;;;6294255;22;20035;-80
2023/10/13 02:04:10;;;;;;;16.95;10.95;;;20.50;75.50;;;;;;6294311;22;19996;-79
2023/10/13 02:06:37;;;;;;;18.00;11.02;;;20.50;75.50;;;;;;6297651;22;20011;-79
2023/10/13 02:09:25;;;;;;;17.67;10.90;;;20.50;75.20;;;;;;6276418;22;19996;-78
2023/10/13 02:11:56;;;;;;;20.08;11.13;;;20.50;75.10;;;;;;6276030;22;20067;-79
2023/10/13 02:14:25;;;;;;;16.48;10.43;;;20.50;74.90;;;;;;6275763;22;20007;-79
2023/10/13 02:16:55;;;;;;;18.38;11.45;;;20.40;74.50;;;;;;6275860;22;20027;-79
2023/10/13 02:19:21;;;;;;;17.08;10.70;;;20.40;74.50;;;;;;6275647;22;20062;-79
2023/10/13 02:21:58;;;;;;;15.10;10.80;;;20.40;74.50;;;;;;6275200;22;20018;-78
2023/10/13 02:24:29;;;;;;;17.35;10.52;;;20.40;74.50;;;;;;6275032;22;20039;-79
2023/10/13 02:27:04;;;;;;;17.40;10.93;;;20.40;74.60;;;;;;6275117;22;20070;-78
2023/10/13 02:29:30;;;;;;;17.83;11.52;;;20.40;74.70;;;;;;6275656;22;20068;-78
2023/10/13 02:31:57;;;;;;;21.75;11.52;;;20.40;74.40;;;;;;6275178;22;20337;-78
2023/10/13 02:34:23;;;;;;;20.17;11.27;;;20.40;74.20;;;;;;6274902;22;19995;-78
2023/10/13 02:36:49;;;;;;;19.17;11.23;;;20.40;74.50;;;;;;6275396;22;20004;-78
2023/10/13 02:39:16;;;;;;;18.88;11.27;;;20.40;74.40;;;;;;6274928;22;20000;-79
2023/10/13 02:41:48;;;;;;;16.08;10.43;;;20.30;74.30;;;;;;6275010;22;20003;-78
2023/10/13 02:44:48;;;;;;;16.30;10.57;;;20.30;74.50;;;;;;6275293;22;20003;-78
2023/10/13 02:47:14;;;;;;;18.15;11.55;;;20.30;74.40;;;;;;6270950;22;20333;-79
2023/10/13 02:49:43;;;;;;;18.58;11.40;;;20.30;74.40;;;;;;6275688;22;20000;-79
2023/10/13 02:52:09;;;;;;;17.65;10.70;;;20.20;74.00;;;;;;6275463;22;20007;-79
2023/10/13 02:54:47;;;;;;;20.83;11.30;;;20.30;74.00;;;;;;6275415;22;20429;-79
2023/10/13 02:57:15;;;;;;;19.60;10.65;;;20.20;74.00;;;;;;6275382;22;20004;-79
2023/10/13 02:59:48;;;;;;;22.92;11.75;;;20.30;74.20;;;;;;6275590;22;20011;-78
2023/10/13 03:02:17;;;;;;;19.10;11.30;;;20.20;73.80;;;;;;6275713;22;20424;-79
2023/10/13 03:04:47;;;;;;;19.10;11.32;;;20.30;74.10;;;;;;6275575;22;20010;-80
2023/10/13 03:07:21;;;;;;;14.50;11.00;;;20.30;73.80;;;;;;6274984;22;20006;-79
2023/10/13 03:09:57;;;;;;;20.15;11.65;;;20.30;74.20;;;;;;6276753;22;20020;-79
2023/10/13 03:12:24;;;;;;;14.93;10.95;;;20.30;74.40;;;;;;6249662;22;20011;-79
2023/10/13 03:14:57;;;;;;;20.55;11.48;;;20.30;73.70;;;;;;6277047;22;20016;-80
2023/10/13 03:17:33;;;;;;;17.85;11.60;;;20.20;73.90;;;;;;6277216;22;20018;-80
2023/10/13 03:19:59;;;;;;;27.70;11.77;;;20.20;73.80;;;;;;6276583;22;20008;-80
2023/10/13 03:22:32;;;;;;;18.75;11.10;;;20.10;73.90;;;;;;6276994;22;20006;-79
2023/10/13 03:25:05;;;;;;;19.45;11.63;;;20.20;74.60;;;;;;6276886;22;20007;-78
2023/10/13 03:27:48;;;;;;;;;;;20.10;74.20;;;;;;6278150;22;20001;-79
2023/10/13 03:30:15;;;;;;;17.23;10.32;;;20.10;74.30;;;;;;6276784;22;19906;-78
2023/10/13 03:33:44;;;;;;;19.80;10.82;;;20.00;74.00;;;;;;6249495;22;20004;-79
2023/10/13 03:35:43;;;;;;;17.55;10.13;;;19.90;73.60;;;;;;6244149;22;20043;-78
2023/10/13 03:38:18;;;;;;;19.38;10.32;;;19.90;74.20;;;;;;6277120;22;20000;-79
2023/10/13 03:43:45;;;;;;;15.00;11.15;;;20.00;73.80;;;;;;6276620;22;20085;-76
2023/10/13 03:46:11;;;;;;;16.80;10.95;;;19.90;73.40;;;;;;6276669;22;20445;-78
2023/10/13 03:49:01;;;;;;;18.70;9.93;;;20.00;73.60;;;;;;6276201;22;20000;-78
2023/10/13 03:51:30;;;;;;;23.02;10.35;;;20.00;73.50;;;;;;6275672;22;20333;-80
2023/10/13 03:53:56;;;;;;;16.20;9.50;;;19.90;73.10;;;;;;6276929;22;20065;-79
2023/10/13 03:56:27;;;;;;;18.33;9.30;;;19.90;73.20;;;;;;6276817;22;20008;-79
2023/10/13 03:59:06;;;;;;;16.45;9.95;;;19.90;73.00;;;;;;6248882;22;20034;-80
2023/10/13 04:17:26;;;;;;;16.05;10.07;;;19.90;72.20;;;;;;6276433;22;20019;-79
2023/10/13 04:25:35;;;;;;;15.82;8.40;;;19.80;72.30;;;;;;6297375;22;20014;-78
2023/10/13 04:28:37;;;;;;;17.58;9.07;;;19.80;72.30;;;;;;6297237;22;20052;-79
2023/10/13 04:31:13;;;;;;;14.40;8.60;;;19.80;72.10;;;;;;6288675;22;20394;-79
2023/10/13 04:33:52;;;;;;;14.43;8.70;;;19.80;71.70;;;;;;6277075;22;20102;-80
2023/10/13 04:54:54;;;;;;;14.35;8.48;;;19.40;70.90;;;;;;6252418;22;20445;-78
2023/10/13 04:57:34;;;;;;;15.80;9.05;;;19.50;71.70;;;;;;6276673;22;20000;-81
2023/10/13 05:06:10;;;;;;;16.15;9.02;;;19.50;70.60;;;;;;6194130;22;20382;-79
2023/10/13 05:44:47;;;;;;;;;;;19.30;70.40;;;;;;6276113;22;20070;-77
2023/10/13 05:47:46;;;;;;;17.73;9.05;;;19.30;70.30;;;;;;6275642;22;19899;-78
2023/10/13 06:28:40;;;;;;;17.98;11.20;;;19.90;71.60;;;;;;6274622;22;20055;-75
2023/10/13 06:31:07;;;;;;;19.13;10.77;;;20.00;71.70;;;;;;6274178;22;20003;-77
2023/10/13 06:33:35;;;;;;;23.27;11.80;;;20.10;71.60;;;;;;6274531;22;20003;-75
2023/10/13 06:36:09;;;;;;;20.05;11.48;;;20.10;71.90;;;;;;6247584;22;20007;-75
2023/10/13 06:38:38;;;;;;;24.75;12.60;;;20.20;72.30;;;;;;6275359;22;20376;-74
2023/10/13 06:41:08;;;;;;;21.20;12.55;;;20.20;72.40;;;;;;6278315;22;20008;-76
2023/10/13 06:43:43;;;;;;;30.52;12.98;;;20.20;72.80;;;;;;6276303;22;19999;-75
2023/10/13 06:46:14;;;;;;;26.10;12.00;;;20.40;72.80;;;;;;6276678;22;20425;-75
2023/10/13 06:48:41;;;;;;;21.38;13.07;;;20.60;72.30;;;;;;6279327;22;20000;-76
2023/10/13 06:51:22;;;;;;;23.95;13.20;;;20.80;72.10;;;;;;6280967;22;20000;-77
2023/10/13 06:53:48;;;;;;;23.23;13.23;;;21.10;72.30;;;;;;6281351;22;20003;-77
2023/10/13 06:56:29;;;;;;;26.23;12.85;;;21.30;71.60;;;;;;6276794;22;20003;-75
2023/10/13 06:58:59;;;;;;;27.88;12.85;;;21.40;71.80;;;;;;6249408;22;20456;-75
2023/10/13 07:01:26;;;;;;;23.38;12.90;;;21.60;71.30;;;;;;6274614;22;20077;-75
2023/10/13 07:04:00;;;;;;;19.98;12.95;;;21.80;71.10;;;;;;6276535;22;20026;-76
2023/10/13 07:06:27;;;;;;;26.13;13.73;;;21.90;71.10;;;;;;6276016;22;20011;-79
2023/10/13 07:08:52;;;;;;;25.27;13.75;;;22.00;70.40;;;;;;6276346;22;19995;-79
2023/10/13 07:11:32;;;;;;;25.63;13.80;;;22.10;70.30;;;;;;6276305;22;20074;-74
2023/10/13 07:14:16;;;;;;;36.95;14.40;;;22.20;70.00;;;;;;6276530;22;20008;-74
2023/10/13 07:17:05;;;;;;;28.92;15.00;;;22.30;69.80;;;;;;6249110;22;20346;-73
2023/10/13 07:19:31;;;;;;;22.23;13.35;;;22.30;69.70;;;;;;6276525;22;20008;-74
2023/10/13 07:22:02;;;;;;;33.90;15.02;;;22.30;69.50;;;;;;6275582;22;20016;-75
2023/10/13 07:24:31;;;;;;;25.15;15.10;;;22.40;69.30;;;;;;6275350;22;20330;-74
2023/10/13 07:27:04;;;;;;;21.30;14.25;;;22.50;69.30;;;;;;6276010;22;20000;-74
2023/10/13 07:29:33;;;;;;;32.30;14.98;;;22.60;69.20;;;;;;6275838;22;20044;-75
2023/10/13 07:32:02;;;;;;;26.70;15.80;;;22.60;69.30;;;;;;6249179;22;20004;-74
2023/10/13 07:34:35;;;;;;;24.33;14.68;;;22.70;68.80;;;;;;6275934;22;20425;-74
2023/10/13 07:37:03;;;;;;;28.95;15.60;;;22.70;68.90;;;;;;6248794;22;20026;-74
2023/10/13 07:39:38;;;;;;;25.10;15.32;;;22.70;69.00;;;;;;6275782;22;20010;-75
2023/10/13 07:42:15;;;;;;;24.42;15.18;;;22.70;69.00;;;;;;6275539;22;20004;-75
2023/10/13 07:44:45;;;;;;;25.83;14.98;;;22.70;69.30;;;;;;6275418;22;20027;-74
2023/10/13 07:47:14;;;;;;;23.98;15.45;;;22.70;69.70;;;;;;6275833;22;20004;-74
2023/10/13 07:49:40;;;;;;;28.83;16.40;;;22.70;69.80;;;;;;6275309;22;20333;-74
2023/10/13 07:54:55;;;;;;;27.27;16.27;;;22.70;69.90;;;;;;6276745;22;20008;-74
2023/10/13 07:57:29;;;;;;;30.98;16.58;;;22.60;69.60;;;;;;6276138;22;20329;-74
2023/10/13 08:02:51;;;;;;;29.63;14.63;;;22.40;69.80;;;;;;6229165;22;20015;-75
2023/10/13 08:05:39;;;;;;;34.17;15.48;;;22.40;70.20;;;;;;6276557;22;20011;-74
2023/10/13 08:08:04;;;;;;;27.67;15.18;;;22.40;70.30;;;;;;6276529;22;20029;-74
2023/10/13 08:10:36;;;;;;;30.05;15.43;;;22.40;70.40;;;;;;6276170;22;20440;-74
2023/10/13 08:13:02;;;;;;;29.05;14.85;;;22.40;70.30;;;;;;6276140;22;20008;-74
2023/10/13 08:15:33;;;;;;;30.40;14.98;;;22.50;70.50;;;;;;6276076;22;20050;-72
2023/10/13 08:18:17;;;;;;;23.73;14.35;;;22.50;70.70;;;;;;6276017;22;20447;-75
2023/10/13 08:20:44;;;;;;;32.58;14.73;;;22.50;70.60;;;;;;6275731;22;20103;-72
2023/10/13 08:23:34;;;;;;;29.73;13.45;;;22.60;70.70;;;;;;6275124;22;20430;-76
2023/10/13 08:28:54;;;;;;;29.65;14.20;;;22.60;71.30;;;;;;6275691;22;20014;-75
2023/10/13 08:31:22;;;;;;;35.95;14.50;;;22.60;70.90;;;;;;6248179;22;20113;-73
2023/10/13 08:33:48;;;;;;;29.13;13.23;;;22.70;70.90;;;;;;6275228;22;20396;-75
2023/10/13 08:36:30;;;;;;;22.25;13.20;;;22.70;70.60;;;;;;6275500;22;20165;-74
2023/10/13 08:38:57;;;;;;;26.95;14.20;;;22.70;71.20;;;;;;6275514;22;20007;-74
2023/10/13 08:43:50;;;;;;;25.27;14.38;;;22.80;72.10;;;;;;6276030;22;20318;-73
2023/10/13 08:46:30;;;;;;;23.92;12.60;;;22.80;71.30;;;;;;6276147;22;20003;-73
2023/10/13 08:49:13;;;;;;;29.25;14.07;;;22.80;71.30;;;;;;6276350;22;20030;-74
2023/10/13 08:51:49;;;;;;;31.42;14.18;;;22.90;71.30;;;;;;6276809;22;20000;-73
2023/10/13 08:54:19;;;;;;;26.55;14.10;;;22.90;71.20;;;;;;6275996;22;20071;-74
2023/10/13 08:56:57;;;;;;;23.73;14.68;;;22.90;71.20;;;;;;6275660;22;20366;-74
2023/10/13 08:59:38;;;;;;;22.80;14.70;;;23.00;71.50;;;;;;6274883;22;20012;-73
2023/10/13 09:02:17;;;;;;;28.27;15.18;;;23.00;71.80;;;;;;6275913;22;19999;-74
2023/10/13 09:04:47;;;;;;;24.27;15.10;;;23.00;71.80;;;;;;6250574;22;20045;-73
2023/10/13 09:07:15;;;;;;;28.33;15.07;;;23.10;72.20;;;;;;6275729;22;20074;-72
2023/10/13 14:55:45;;;;;;;13.65;6.97;;;27.70;65.10;;;;;;6264902;22;20457;-75
2023/10/13 14:58:16;;;;;;;13.80;6.82;;;27.70;65.00;;;;;;6270659;22;20276;-74
2023/10/13 15:00:45;;;;;;;16.60;7.10;;;27.60;65.10;;;;;;6273864;22;20015;-75
2023/10/13 15:03:11;;;;;;;16.20;7.45;;;27.60;65.70;;;;;;6274335;22;20434;-75
2023/10/13 15:05:43;;;;;;;15.20;6.88;;;27.50;66.10;;;;;;6274524;22;20018;-74
2023/10/13 15:08:09;;;;;;;20.08;6.68;;;27.50;65.70;;;;;;6249949;22;20003;-75
2023/10/13 15:10:36;;;;;;;14.68;6.40;;;27.50;65.80;;;;;;6276031;22;20079;-74
2023/10/13 15:13:05;;;;;;;13.43;6.60;;;27.50;65.60;;;;;;6276767;22;20301;-73
2023/10/13 15:15:32;;;;;;;17.15;7.10;;;27.50;65.80;;;;;;6275995;22;20445;-73
2023/10/13 15:17:58;;;;;;;17.00;6.63;;;27.40;65.80;;;;;;6276243;22;20003;-74
2023/10/13 15:20:24;;;;;;;17.40;7.05;;;27.30;66.10;;;;;;6276927;22;20008;-72
2023/10/13 15:22:49;;;;;;;19.50;7.63;;;27.30;66.10;;;;;;6276129;22;20022;-74
2023/10/13 15:25:28;;;;;;;14.50;7.65;;;27.30;66.40;;;;;;6276195;22;20061;-73
2023/10/13 15:28:02;;;;;;;11.68;7.47;;;27.30;66.30;;;;;;6275827;22;20030;-73
2023/10/13 15:30:43;;;;;;;15.93;6.95;;;27.20;66.20;;;;;;6275254;22;20004;-76
2023/10/13 15:33:11;;;;;;;14.80;7.63;;;27.20;66.70;;;;;;6275732;22;19996;-77
2023/10/13 15:35:45;;;;;;;12.82;6.97;;;27.10;67.10;;;;;;6273186;22;20349;-77
2023/10/13 15:38:14;;;;;;;27.52;10.00;;;27.10;66.80;;;;;;6276239;22;20000;-76
2023/10/13 15:40:43;;;;;;;25.98;10.32;;;27.00;67.20;;;;;;6276129;22;20019;-75
2023/10/13 15:43:10;;;;;;;26.92;12.90;;;26.90;67.90;;;;;;6275582;22;20609;-78
2023/10/13 15:45:45;;;;;;;29.33;13.32;;;26.80;67.80;;;;;;6276472;22;20338;-77
2023/10/13 15:48:11;;;;;;;26.60;10.13;;;26.70;68.30;;;;;;6276412;22;20000;-76
2023/10/13 15:50:39;;;;;;;31.90;11.90;;;26.70;68.40;;;;;;6276476;22;20410;-77
2023/10/13 15:53:06;;;;;;;16.70;7.88;;;26.60;68.60;;;;;;6276211;22;20018;-76
2023/10/13 15:55:36;;;;;;;19.23;8.80;;;26.60;68.60;;;;;;6275634;22;20027;-76
2023/10/13 15:58:02;;;;;;;30.05;11.90;;;26.50;68.30;;;;;;6276081;22;20049;-77
2023/10/13 16:00:29;;;;;;;19.50;7.03;;;26.40;68.30;;;;;;6277324;22;20079;-76
2023/10/13 16:02:58;;;;;;;18.65;7.95;;;26.30;68.50;;;;;;6277838;22;20022;-76
2023/10/13 16:05:29;;;;;;;17.08;7.13;;;26.30;68.80;;;;;;6277839;22;20026;-77
2023/10/13 16:07:55;;;;;;;13.02;6.63;;;26.20;69.00;;;;;;6277250;22;20463;-78
2023/10/13 16:10:23;;;;;;;13.10;6.05;;;26.20;69.00;;;;;;6276632;22;20001;-77
2023/10/13 16:12:49;;;;;;;23.55;7.80;;;26.10;69.00;;;;;;6276630;22;20004;-78
2023/10/13 16:15:15;;;;;;;16.73;7.40;;;26.00;69.20;;;;;;6275880;22;20006;-78
2023/10/13 16:17:41;;;;;;;18.33;8.20;;;26.00;69.20;;;;;;6276299;22;20000;-76
2023/10/13 16:20:16;;;;;;;16.98;6.68;;;25.90;69.30;;;;;;6275812;22;20011;-76
2023/10/13 16:22:46;;;;;;;15.32;6.97;;;25.90;68.50;;;;;;6275752;22;20011;-77
2023/10/13 16:25:16;;;;;;;15.40;6.82;;;25.80;69.50;;;;;;6275596;22;20006;-77
2023/10/13 16:27:43;;;;;;;14.68;6.75;;;25.80;69.40;;;;;;6276112;22;20004;-78
2023/10/13 16:30:10;;;;;;;15.50;7.05;;;25.70;69.50;;;;;;6275261;22;20027;-76
2023/10/13 16:32:36;;;;;;;18.55;8.00;;;25.70;69.40;;;;;;6275505;22;19996;-76
2023/10/13 16:35:06;;;;;;;19.08;7.22;;;25.60;69.20;;;;;;6276105;22;20011;-78
2023/10/13 16:37:33;;;;;;;14.82;6.68;;;25.60;69.30;;;;;;6275772;22;20434;-77
2023/10/13 16:40:04;;;;;;;16.23;7.68;;;25.50;69.50;;;;;;6276240;22;20117;-76
2023/10/13 16:42:34;;;;;;;16.02;7.82;;;25.50;69.50;;;;;;6275722;22;20019;-76
2023/10/13 16:45:14;;;;;;;17.85;7.72;;;25.40;70.20;;;;;;6275970;22;20058;-76
2023/10/13 16:47:49;;;;;;;14.02;7.35;;;25.30;70.10;;;;;;6275848;22;20043;-76
2023/10/13 16:50:17;;;;;;;12.07;6.53;;;25.30;69.60;;;;;;6275539;22;19999;-76
2023/10/13 16:52:47;;;;;;;13.60;7.10;;;25.30;70.50;;;;;;6275461;22;20004;-75
2023/10/13 16:55:17;;;;;;;13.82;6.68;;;25.20;70.90;;;;;;6248186;22;20024;-76
2023/10/13 16:57:44;;;;;;;14.15;6.88;;;25.20;71.20;;;;;;6275574;22;20140;-78
2023/10/13 17:00:12;;;;;;;10.98;7.00;;;25.20;71.30;;;;;;6275668;22;20027;-76
2023/10/13 17:02:43;;;;;;;14.60;7.13;;;25.10;71.20;;;;;;6275343;22;20003;-76
2023/10/13 17:05:12;;;;;;;17.52;6.90;;;25.10;70.70;;;;;;6275052;22;20078;-75
2023/10/13 17:07:38;;;;;;;15.02;6.80;;;25.10;71.80;;;;;;6275126;22;20367;-77
2023/10/13 17:10:04;;;;;;;15.38;6.93;;;25.00;71.30;;;;;;6275375;22;20004;-77
2023/10/13 17:12:30;;;;;;;13.45;6.68;;;25.00;71.30;;;;;;6275405;22;20031;-75
2023/10/13 17:14:57;;;;;;;12.60;7.80;;;24.90;71.50;;;;;;6275456;22;20023;-78
2023/10/13 17:17:24;;;;;;;20.77;6.72;;;24.90;71.70;;;;;;6275303;22;20004;-78
2023/10/13 17:19:51;;;;;;;15.48;8.18;;;24.80;71.70;;;;;;6275593;22;20011;-76
2023/10/13 17:22:17;;;;;;;10.88;7.28;;;24.80;71.90;;;;;;6275135;22;20034;-75
2023/10/13 17:24:43;;;;;;;14.82;7.10;;;24.80;72.00;;;;;;6275194;22;20000;-78
2023/10/13 17:27:09;;;;;;;13.73;6.95;;;24.70;72.30;;;;;;6275849;22;20000;-77
2023/10/13 17:29:35;;;;;;;16.13;7.32;;;24.70;72.20;;;;;;6276379;22;20003;-76
2023/10/13 17:32:02;;;;;;;11.68;7.20;;;24.70;72.80;;;;;;6275215;22;20465;-77
2023/10/13 17:34:28;;;;;;;15.88;7.38;;;24.60;72.70;;;;;;6275698;22;19999;-77
2023/10/13 17:36:58;;;;;;;15.93;7.43;;;24.60;72.50;;;;;;6274863;22;20000;-76
2023/10/13 17:39:24;;;;;;;15.57;8.15;;;24.60;72.80;;;;;;6275419;22;20326;-78
2023/10/13 17:41:51;;;;;;;15.75;8.48;;;24.50;72.80;;;;;;6275393;22;20418;-78
2023/10/13 17:44:17;;;;;;;14.45;8.45;;;24.50;73.20;;;;;;6275137;22;20071;-77
2023/10/13 17:46:43;;;;;;;14.98;8.32;;;24.50;73.50;;;;;;6275458;22;20388;-78
2023/10/13 17:49:09;;;;;;;15.68;6.90;;;24.40;73.60;;;;;;6275707;22;20003;-76
2023/10/13 17:51:35;;;;;;;15.65;7.93;;;24.40;73.70;;;;;;6275492;22;20035;-77
2023/10/13 17:54:01;;;;;;;13.68;8.02;;;24.40;73.50;;;;;;6275123;22;20359;-76
2023/10/13 17:56:26;;;;;;;14.90;7.90;;;24.40;74.00;;;;;;6274895;22;20018;-76
2023/10/13 17:58:53;;;;;;;13.88;7.70;;;24.30;73.80;;;;;;6275888;22;20410;-76
2023/10/13 18:01:19;;;;;;;12.57;7.63;;;24.30;74.40;;;;;;6275549;22;20012;-77
2023/10/13 18:03:48;;;;;;;15.32;8.20;;;24.20;74.00;;;;;;6275519;22;19996;-77
2023/10/13 18:06:16;;;;;;;14.05;7.80;;;24.20;74.20;;;;;;6274948;22;20008;-77
2023/10/13 18:08:43;;;;;;;11.25;8.30;;;24.10;74.10;;;;;;6275329;22;20074;-77
2023/10/13 18:11:12;;;;;;;18.02;9.10;;;24.10;74.40;;;;;;6275471;22;20007;-77
2023/10/13 18:13:39;;;;;;;16.92;8.80;;;24.10;74.60;;;;;;6275568;22;20019;-77
2023/10/13 18:16:15;;;;;;;16.73;8.85;;;24.00;74.40;;;;;;6275552;22;20145;-77
2023/10/13 18:18:41;;;;;;;16.60;10.23;;;24.00;75.40;;;;;;6275215;22;20011;-76
2023/10/13 18:21:08;;;;;;;18.70;8.73;;;24.00;75.10;;;;;;6275640;22;20007;-76
2023/10/13 18:23:40;;;;;;;14.73;11.02;;;24.00;74.90;;;;;;6276734;22;20326;-77
2023/10/13 18:26:11;;;;;;;17.83;10.68;;;24.00;75.00;;;;;;6275746;22;20143;-75
2023/10/13 18:28:38;;;;;;;14.40;10.45;;;24.00;74.80;;;;;;6275406;22;20000;-76
2023/10/13 18:31:05;;;;;;;18.65;10.38;;;24.00;75.40;;;;;;6275604;22;20000;-76
2023/10/13 18:33:34;;;;;;;17.52;9.73;;;23.90;75.10;;;;;;6275424;22;20383;-77
2023/10/13 18:36:20;;;;;;;16.13;10.10;;;23.90;75.40;;;;;;6274626;22;20003;-75
2023/10/13 18:38:47;;;;;;;19.15;9.85;;;24.00;75.40;;;;;;6275580;22;20011;-77
2023/10/13 18:41:15;;;;;;;13.65;9.77;;;23.90;75.40;;;;;;6276917;22;20123;-75
2023/10/13 18:43:42;;;;;;;18.63;10.25;;;23.90;75.40;;;;;;6275712;22;20007;-71
2023/10/13 18:46:11;;;;;;;19.17;9.60;;;24.00;75.40;;;;;;6274724;22;20006;-80
2023/10/13 18:48:43;;;;;;;14.23;9.60;;;24.00;75.40;;;;;;6276661;22;20022;-79
2023/10/13 18:51:11;;;;;;;20.85;11.15;;;24.00;76.20;;;;;;6277559;22;19999;-85
2023/10/13 18:53:40;;;;;;;22.65;10.98;;;24.00;75.50;;;;;;6278493;22;20000;-79
2023/10/13 18:56:11;;;;;;;15.88;9.63;;;23.90;75.70;;;;;;6276940;22;20015;-78
2023/10/13 18:58:48;;;;;;;20.85;11.05;;;23.90;75.50;;;;;;6276979;22;20425;-79
2023/10/13 19:01:18;;;;;;;20.88;11.60;;;23.90;76.50;;;;;;6277655;22;20018;-79
2023/10/13 19:03:51;;;;;;;17.15;11.30;;;23.90;75.90;;;;;;6277828;22;20031;-78
2023/10/13 19:06:18;;;;;;;22.58;11.75;;;23.80;76.70;;;;;;6277193;22;20114;-78
2023/10/13 19:08:45;;;;;;;20.50;10.75;;;23.80;76.10;;;;;;6277680;22;20393;-79
2023/10/13 19:11:12;;;;;;;16.40;10.60;;;23.80;76.10;;;;;;6251610;22;20042;-78
2023/10/13 19:13:39;;;;;;;16.02;9.80;;;23.80;76.30;;;;;;6277111;22;20004;-77
2023/10/13 19:16:06;;;;;;;17.75;9.65;;;23.70;76.50;;;;;;6277313;22;20064;-78
2023/10/13 19:18:34;;;;;;;16.08;9.35;;;23.70;76.50;;;;;;6285431;22;20033;-80
2023/10/13 19:21:14;;;;;;;16.65;9.50;;;23.60;76.90;;;;;;6285527;22;20114;-78
2023/10/13 19:23:46;;;;;;;13.95;9.25;;;23.60;77.60;;;;;;6278157;22;20000;-78
2023/10/13 19:26:13;;;;;;;14.07;9.13;;;23.60;77.40;;;;;;6277393;22;20007;-78
2023/10/13 19:28:41;;;;;;;15.32;8.77;;;23.50;77.20;;;;;;6277116;22;20075;-86
2023/10/13 19:31:07;;;;;;;16.85;9.18;;;23.50;76.90;;;;;;6276661;22;20010;-77
2023/10/13 19:33:32;;;;;;;15.38;9.80;;;23.50;77.40;;;;;;6277162;22;20083;-77
2023/10/13 19:35:58;;;;;;;19.77;9.77;;;23.50;77.60;;;;;;6277612;22;20491;-77
2023/10/13 19:38:28;;;;;;;15.30;9.63;;;23.50;77.70;;;;;;6277488;22;20000;-78
2023/10/13 19:40:54;;;;;;;17.85;10.02;;;23.50;77.70;;;;;;6278377;22;20020;-79
2023/10/13 19:43:20;;;;;;;15.45;9.57;;;23.50;77.70;;;;;;6277800;22;20058;-78
2023/10/13 19:45:48;;;;;;;16.58;9.68;;;23.50;77.70;;;;;;6276933;22;19999;-79
2023/10/13 19:48:14;;;;;;;16.38;9.88;;;23.50;77.90;;;;;;6277492;22;20323;-78
2023/10/13 19:50:40;;;;;;;17.67;10.40;;;23.40;77.40;;;;;;6276726;22;20010;-78
2023/10/13 19:53:13;;;;;;;13.32;9.35;;;23.40;77.90;;;;;;6277583;22;20012;-78
2023/10/13 19:55:42;;;;;;;14.95;10.00;;;23.40;78.00;;;;;;6277217;22;20027;-79
2023/10/13 19:58:14;;;;;;;19.38;9.73;;;23.40;77.70;;;;;;6250206;22;20014;-77
2023/10/13 20:00:40;;;;;;;17.50;9.73;;;23.30;77.80;;;;;;6249825;22;20074;-76
2023/10/13 20:03:10;;;;;;;17.77;10.35;;;23.40;78.20;;;;;;6277365;22;19999;-78
2023/10/13 20:05:36;;;;;;;19.75;10.60;;;23.30;78.20;;;;;;6277600;22;20007;-81
2023/10/13 20:08:06;;;;;;;15.80;10.52;;;23.30;78.10;;;;;;6277488;22;20011;-76
2023/10/13 20:10:36;;;;;;;18.17;9.70;;;23.30;78.70;;;;;;6276757;22;20008;-77
2023/10/13 20:13:06;;;;;;;15.85;9.88;;;23.30;78.90;;;;;;6275369;22;19996;-78
2023/10/13 20:15:32;;;;;;;15.77;9.50;;;23.30;78.30;;;;;;6283598;22;19988;-77
2023/10/13 20:17:59;;;;;;;16.40;10.20;;;23.30;78.90;;;;;;6288815;22;20377;-78
2023/10/13 20:20:28;;;;;;;19.38;9.65;;;23.20;78.60;;;;;;6276965;22;20027;-79
2023/10/13 20:22:55;;;;;;;17.85;10.13;;;23.30;79.20;;;;;;6276724;22;20084;-79
2023/10/13 20:25:23;;;;;;;15.48;10.32;;;23.20;78.90;;;;;;6276599;22;20031;-78
2023/10/13 20:27:51;;;;;;;16.35;9.60;;;23.20;78.90;;;;;;6276528;22;20326;-77
2023/10/13 20:30:21;;;;;;;14.98;9.82;;;23.20;79.10;;;;;;6275996;22;20057;-78
2023/10/13 20:32:48;;;;;;;16.38;10.60;;;23.20;79.00;;;;;;6277062;22;20023;-76
2023/10/13 20:35:21;;;;;;;17.30;11.30;;;23.10;78.90;;;;;;6276062;22;20049;-78
2023/10/13 20:37:51;;;;;;;;;;;23.10;78.90;;;;;;6277536;22;20043;-78
2023/10/13 20:40:21;;;;;;;14.27;9.95;;;23.10;79.80;;;;;;6276905;22;19907;-77
2023/10/13 20:42:51;;;;;;;15.10;10.40;;;23.10;79.60;;;;;;6251097;22;20514;-76
2023/10/13 20:45:23;;;;;;;14.23;10.45;;;23.10;79.00;;;;;;6277636;22;20010;-78
2023/10/13 20:47:52;;;;;;;14.85;9.93;;;23.00;79.70;;;;;;6276582;22;20326;-78
2023/10/13 20:50:22;;;;;;;15.50;9.77;;;23.00;79.10;;;;;;6277273;22;20077;-78
2023/10/13 20:52:52;;;;;;;15.38;10.13;;;23.00;79.30;;;;;;6276086;22;20010;-78
